Merritt, Canada
Current Conditions -  °F | °C
As of 9:00 AM on Thursday 23 Oct 2014 (Local Time) from CWLY Reporting Station
Few Clouds Few Clouds  
Wind Chill: 50°   Ceiling: Unl
Heat Index: 50°   Visibility: 9mi
Dew Point: 43°   Wind: 20mph
Humidity: 76%   Direction: 190°S
Pressure: 29.65"   Gusts: 36mph
Location:  50.11°N, 120.79°W
Report Text: CWLY 231600Z AUTO 19017G31KT 9SM FEW160 10/06 A2965 RMK SLP043
Loading
Personal Weather Stations






























Interactive Weather Map
Tropical Storm Tracking
New forecast layout! Learn more

10-Day Weather Forecast

Advertisements
Track Severe Weather on mobile